createdAt,value
2018-02-21T00:00:59.801Z,49.0
2018-02-21T00:10:59.533Z,53.1
2018-02-21T00:20:59.359Z,56.7
2018-02-21T00:30:59.096Z,54.7
2018-02-21T00:40:59.817Z,54.8
2018-02-21T00:50:59.544Z,52.8
2018-02-21T01:00:59.384Z,53.1
2018-02-21T01:10:59.211Z,53.8
2018-02-21T01:20:59.120Z,57.1
2018-02-21T01:30:59.873Z,48.1
2018-02-21T01:40:59.690Z,45.1
2018-02-21T01:50:59.445Z,43.2
2018-02-21T02:00:59.121Z,39.3
2018-02-21T02:10:59.888Z,41.6
2018-02-21T02:20:59.803Z,39.9
2018-02-21T02:30:59.584Z,42.4
2018-02-21T02:40:59.328Z,40.5
2018-02-21T02:50:59.088Z,42.9
2018-02-21T03:00:59.869Z,44.2
2018-02-21T03:10:59.516Z,45.6
2018-02-21T03:20:59.416Z,52.1
2018-02-21T03:30:59.183Z,50.6
2018-02-21T03:40:59.960Z,48.9
2018-02-21T03:50:59.735Z,47.2
2018-02-21T04:00:59.628Z,44.0
2018-02-21T04:10:59.338Z,42.3
2018-02-21T04:20:59.251Z,44.1
2018-02-21T04:30:59.003Z,47.2
2018-02-21T04:40:59.784Z,52.2
2018-02-21T04:50:59.580Z,48.5
2018-02-21T05:00:59.374Z,41.7
2018-02-21T05:10:59.159Z,39.4
2018-02-21T05:20:59.065Z,41.8
2018-02-21T05:30:59.499Z,44.5
2018-02-21T05:40:59.274Z,40.4
2018-02-21T05:50:59.017Z,39.5
2018-02-21T06:00:59.732Z,41.0
2018-02-21T06:10:59.469Z,41.5
2018-02-21T06:20:59.312Z,37.8
2018-02-21T06:30:59.079Z,40.1
2018-02-21T06:40:59.818Z,43.8
2018-02-21T06:50:59.570Z,43.4
2018-02-21T07:00:59.320Z,41.6
2018-02-21T07:10:59.150Z,44.2
2018-02-21T07:20:58.998Z,41.3
2018-02-21T07:30:59.732Z,44.0
2018-02-21T07:40:59.489Z,45.6
2018-02-21T07:50:59.310Z,55.2
2018-02-21T08:00:59.223Z,44.8
2018-02-21T08:10:59.050Z,50.1
2018-02-21T08:20:59.903Z,49.4
2018-02-21T08:30:59.637Z,50.6
2018-02-21T08:40:59.349Z,41.6
2018-02-21T08:50:59.084Z,46.2
2018-02-21T09:00:59.817Z,49.7
2018-02-21T09:10:59.627Z,47.6
2018-02-21T09:20:59.491Z,46.3
2018-02-21T09:30:59.319Z,51.0
2018-02-21T09:40:59.085Z,49.0
2018-02-21T09:50:59.788Z,52.9
2018-02-21T10:00:59.577Z,52.1
2018-02-21T10:10:59.325Z,49.4
2018-02-21T10:20:59.259Z,45.6
2018-02-21T10:30:59.007Z,49.9
2018-02-21T10:40:59.739Z,37.3
2018-02-21T10:50:59.520Z,36.3
2018-02-21T11:00:59.288Z,37.1
2018-02-21T11:10:59.017Z,45.0
2018-02-21T11:20:59.880Z,43.5
2018-02-21T11:30:59.640Z,39.0
2018-02-21T11:40:59.404Z,36.8
2018-02-21T11:50:59.175Z,40.3
2018-02-21T12:00:59.841Z,44.2
2018-02-21T12:10:59.596Z,39.2
2018-02-21T12:20:59.474Z,49.0
2018-02-21T12:30:59.199Z,43.3
2018-02-21T12:40:59.910Z,43.1
2018-02-21T12:50:59.692Z,41.0
2018-02-21T13:00:59.465Z,39.7
2018-02-21T13:10:59.164Z,40.6
2018-02-21T13:20:59.062Z,36.8
2018-02-21T13:30:59.819Z,42.2
2018-02-21T13:40:59.725Z,37.1
2018-02-21T13:50:59.478Z,37.1
2018-02-21T14:00:59.277Z,36.3
2018-02-21T14:10:59.049Z,39.8
2018-02-21T14:20:59.950Z,40.7
2018-02-21T14:30:59.730Z,46.9
2018-02-21T14:40:59.541Z,37.8
2018-02-21T14:50:59.323Z,41.5
2018-02-21T15:00:59.099Z,41.5
2018-02-21T15:10:59.893Z,46.6
2018-02-21T15:20:59.796Z,38.8
2018-02-21T15:30:59.574Z,46.5
2018-02-21T15:40:59.347Z,43.0
2018-02-21T15:50:59.061Z,41.3
2018-02-21T16:00:59.827Z,39.4
2018-02-21T16:10:59.569Z,45.8
2018-02-21T16:20:59.475Z,41.0
2018-02-21T16:30:59.255Z,46.1
2018-02-21T16:40:59.012Z,38.3
2018-02-21T16:50:59.761Z,43.6
2018-02-21T17:00:59.508Z,43.3
2018-02-21T17:10:59.169Z,46.2
2018-02-21T17:20:59.029Z,45.9
2018-02-21T17:30:59.802Z,53.8
2018-02-21T17:40:59.611Z,66.2
2018-02-21T17:50:59.281Z,68.0
2018-02-21T18:00:59.054Z,80.0
2018-02-21T18:10:59.795Z,91.7
2018-02-21T18:20:59.696Z,99.1
2018-02-21T18:30:59.578Z,106.7
2018-02-21T18:40:59.284Z,99.2
2018-02-21T18:50:59.068Z,92.5
2018-02-21T19:00:59.952Z,101.4
2018-02-21T19:10:59.846Z,84.5
2018-02-21T19:20:59.900Z,93.5
2018-02-21T19:30:59.873Z,103.7
2018-02-21T19:40:59.847Z,99.0
2018-02-21T19:50:59.791Z,116.5
2018-02-21T20:00:59.819Z,130.2
2018-02-21T20:10:59.754Z,105.7
2018-02-21T20:20:59.827Z,103.6
2018-02-21T20:30:59.749Z,104.2
2018-02-21T20:40:59.973Z,114.9
2018-02-21T20:50:59.886Z,103.0
2018-02-21T21:00:59.812Z,99.8
2018-02-21T21:10:59.728Z,119.5
2018-02-21T21:20:59.821Z,105.6
2018-02-21T21:30:59.752Z,106.9
2018-02-21T21:40:59.514Z,109.8
2018-02-21T21:50:59.244Z,116.0
2018-02-21T22:01:00.078Z,124.8
2018-02-21T22:11:00.016Z,120.1
2018-02-21T22:20:59.848Z,107.9
2018-02-21T22:30:59.589Z,89.7
2018-02-21T22:40:59.286Z,67.8
2018-02-21T22:50:59.236Z,66.2
2018-02-21T23:00:59.986Z,67.5
2018-02-21T23:10:59.729Z,61.4
2018-02-21T23:20:59.542Z,60.8
2018-02-21T23:30:59.278Z,58.4
2018-02-21T23:40:59.052Z,60.2
2018-02-21T23:50:59.808Z,59.7
